sensor_id;sensor_type;location;lat;lon;timestamp;P1;durP1;ratioP1;P2;durP2;ratioP2
3633;SDS011;1833;42.718;23.270;2023-03-14T05:33:45;54.53;;;39.93;;
3633;SDS011;1833;42.718;23.270;2023-03-14T05:36:13;42.07;;;35.53;;
3633;SDS011;1833;42.718;23.270;2023-03-14T05:38:40;45.87;;;35.47;;
3633;SDS011;1833;42.718;23.270;2023-03-14T05:41:07;45.60;;;38.30;;
3633;SDS011;1833;42.718;23.270;2023-03-14T05:43:35;46.50;;;38.30;;
3633;SDS011;1833;42.718;23.270;2023-03-14T05:46:02;50.20;;;36.90;;
3633;SDS011;1833;42.718;23.270;2023-03-14T05:48:30;42.20;;;37.70;;
3633;SDS011;1833;42.718;23.270;2023-03-14T05:50:58;57.70;;;37.20;;
3633;SDS011;1833;42.718;23.270;2023-03-14T05:53:26;44.50;;;36.20;;
3633;SDS011;1833;42.718;23.270;2023-03-14T05:55:54;43.00;;;38.37;;
3633;SDS011;1833;42.718;23.270;2023-03-14T05:58:22;50.60;;;39.23;;
3633;SDS011;1833;42.718;23.270;2023-03-14T06:00:50;49.37;;;39.93;;
3633;SDS011;1833;42.718;23.270;2023-03-14T06:03:17;53.67;;;39.40;;
3633;SDS011;1833;42.718;23.270;2023-03-14T06:05:45;51.87;;;40.87;;
3633;SDS011;1833;42.718;23.270;2023-03-14T06:08:13;50.50;;;41.27;;
3633;SDS011;1833;42.718;23.270;2023-03-14T08:13:24;62.80;;;43.37;;
3633;SDS011;1833;42.718;23.270;2023-03-14T08:15:53;56.70;;;41.70;;
3633;SDS011;1833;42.718;23.270;2023-03-14T08:18:22;46.43;;;39.17;;
3633;SDS011;1833;42.718;23.270;2023-03-14T08:20:49;49.20;;;39.70;;
3633;SDS011;1833;42.718;23.270;2023-03-14T08:23:17;55.60;;;41.50;;
3633;SDS011;1833;42.718;23.270;2023-03-14T08:25:44;55.47;;;38.70;;
3633;SDS011;1833;42.718;23.270;2023-03-14T08:28:11;48.03;;;38.53;;
3633;SDS011;1833;42.718;23.270;2023-03-14T08:30:41;49.97;;;40.00;;
3633;SDS011;1833;42.718;23.270;2023-03-14T08:33:21;44.90;;;39.80;;
3633;SDS011;1833;42.718;23.270;2023-03-14T08:35:59;48.40;;;39.80;;
3633;SDS011;1833;42.718;23.270;2023-03-14T08:38:30;56.33;;;40.53;;
3633;SDS011;1833;42.718;23.270;2023-03-14T08:41:03;53.93;;;39.27;;
3633;SDS011;1833;42.718;23.270;2023-03-14T08:43:42;45.83;;;38.50;;
3633;SDS011;1833;42.718;23.270;2023-03-14T08:46:14;47.30;;;37.67;;
3633;SDS011;1833;42.718;23.270;2023-03-14T08:48:42;60.37;;;39.10;;
3633;SDS011;1833;42.718;23.270;2023-03-14T08:51:11;38.90;;;34.77;;
3633;SDS011;1833;42.718;23.270;2023-03-14T08:53:46;43.13;;;37.83;;
3633;SDS011;1833;42.718;23.270;2023-03-14T08:56:18;41.30;;;33.60;;
3633;SDS011;1833;42.718;23.270;2023-03-14T08:58:56;38.83;;;34.47;;
3633;SDS011;1833;42.718;23.270;2023-03-14T09:01:41;34.87;;;31.47;;
3633;SDS011;1833;42.718;23.270;2023-03-14T09:04:08;37.60;;;33.60;;
3633;SDS011;1833;42.718;23.270;2023-03-14T09:06:36;47.13;;;36.97;;
3633;SDS011;1833;42.718;23.270;2023-03-14T09:09:03;39.93;;;35.97;;
3633;SDS011;1833;42.718;23.270;2023-03-14T09:11:31;36.57;;;32.83;;
3633;SDS011;1833;42.718;23.270;2023-03-14T09:13:59;35.90;;;32.00;;
3633;SDS011;1833;42.718;23.270;2023-03-14T09:16:26;36.30;;;32.40;;
3633;SDS011;1833;42.718;23.270;2023-03-14T09:33:07;33.40;;;30.10;;
3633;SDS011;1833;42.718;23.270;2023-03-14T09:35:48;33.73;;;30.57;;
3633;SDS011;1833;42.718;23.270;2023-03-14T09:38:20;34.90;;;31.50;;
3633;SDS011;1833;42.718;23.270;2023-03-14T09:40:48;32.90;;;29.60;;
3633;SDS011;1833;42.718;23.270;2023-03-14T09:43:16;34.40;;;30.83;;
3633;SDS011;1833;42.718;23.270;2023-03-14T09:45:44;33.63;;;30.20;;
3633;SDS011;1833;42.718;23.270;2023-03-14T09:48:19;34.87;;;31.07;;
3633;SDS011;1833;42.718;23.270;2023-03-14T09:50:48;34.47;;;30.83;;
3633;SDS011;1833;42.718;23.270;2023-03-14T09:53:21;34.50;;;30.40;;
3633;SDS011;1833;42.718;23.270;2023-03-14T09:55:51;35.57;;;31.97;;
3633;SDS011;1833;42.718;23.270;2023-03-14T09:58:22;35.00;;;31.60;;
3633;SDS011;1833;42.718;23.270;2023-03-14T10:00:54;34.20;;;30.90;;
3633;SDS011;1833;42.718;23.270;2023-03-14T10:03:32;32.77;;;29.57;;
3633;SDS011;1833;42.718;23.270;2023-03-14T10:08:46;34.07;;;30.90;;
3633;SDS011;1833;42.718;23.270;2023-03-14T10:11:17;33.77;;;30.33;;
3633;SDS011;1833;42.718;23.270;2023-03-14T10:13:49;35.40;;;31.90;;
3633;SDS011;1833;42.718;23.270;2023-03-14T10:16:22;36.47;;;32.77;;
3633;SDS011;1833;42.718;23.270;2023-03-14T10:19:02;35.27;;;31.60;;
3633;SDS011;1833;42.718;23.270;2023-03-14T10:21:32;35.13;;;31.77;;
3633;SDS011;1833;42.718;23.270;2023-03-14T10:24:10;40.37;;;31.80;;
3633;SDS011;1833;42.718;23.270;2023-03-14T10:26:43;33.70;;;30.50;;
3633;SDS011;1833;42.718;23.270;2023-03-14T10:29:16;35.43;;;31.77;;
3633;SDS011;1833;42.718;23.270;2023-03-14T10:31:51;33.10;;;30.07;;
3633;SDS011;1833;42.718;23.270;2023-03-14T10:34:23;33.90;;;30.60;;
3633;SDS011;1833;42.718;23.270;2023-03-14T10:36:56;33.50;;;30.30;;
3633;SDS011;1833;42.718;23.270;2023-03-14T10:39:30;33.20;;;29.60;;
3633;SDS011;1833;42.718;23.270;2023-03-14T10:42:03;34.23;;;30.93;;
3633;SDS011;1833;42.718;23.270;2023-03-14T10:44:31;33.93;;;30.73;;
3633;SDS011;1833;42.718;23.270;2023-03-14T10:47:00;32.27;;;29.17;;
3633;SDS011;1833;42.718;23.270;2023-03-14T10:49:30;33.33;;;29.93;;
3633;SDS011;1833;42.718;23.270;2023-03-14T10:52:01;32.23;;;29.23;;
3633;SDS011;1833;42.718;23.270;2023-03-14T10:54:30;37.13;;;31.60;;
3633;SDS011;1833;42.718;23.270;2023-03-14T10:56:58;33.43;;;29.93;;
3633;SDS011;1833;42.718;23.270;2023-03-14T10:59:25;37.10;;;33.33;;
3633;SDS011;1833;42.718;23.270;2023-03-14T11:01:55;35.77;;;32.20;;
3633;SDS011;1833;42.718;23.270;2023-03-14T11:04:38;35.77;;;32.00;;
3633;SDS011;1833;42.718;23.270;2023-03-14T11:07:14;38.20;;;31.90;;
3633;SDS011;1833;42.718;23.270;2023-03-14T11:09:44;35.27;;;31.73;;
3633;SDS011;1833;42.718;23.270;2023-03-14T11:12:18;35.87;;;32.13;;
3633;SDS011;1833;42.718;23.270;2023-03-14T11:14:52;35.83;;;32.23;;
3633;SDS011;1833;42.718;23.270;2023-03-14T11:17:22;40.00;;;31.50;;
3633;SDS011;1833;42.718;23.270;2023-03-14T11:20:01;35.00;;;31.43;;
3633;SDS011;1833;42.718;23.270;2023-03-14T11:22:36;35.57;;;31.83;;
3633;SDS011;1833;42.718;23.270;2023-03-14T11:25:09;35.57;;;31.93;;
3633;SDS011;1833;42.718;23.270;2023-03-14T11:27:43;35.03;;;31.63;;
3633;SDS011;1833;42.718;23.270;2023-03-14T11:30:18;33.73;;;30.37;;
3633;SDS011;1833;42.718;23.270;2023-03-14T11:32:46;33.97;;;30.47;;
3633;SDS011;1833;42.718;23.270;2023-03-14T11:35:17;35.00;;;31.57;;
3633;SDS011;1833;42.718;23.270;2023-03-14T11:37:54;43.87;;;32.20;;
3633;SDS011;1833;42.718;23.270;2023-03-14T11:40:23;33.53;;;29.70;;
3633;SDS011;1833;42.718;23.270;2023-03-14T11:42:53;35.43;;;32.17;;
3633;SDS011;1833;42.718;23.270;2023-03-14T11:45:23;34.30;;;30.97;;
3633;SDS011;1833;42.718;23.270;2023-03-14T11:47:53;34.10;;;30.57;;
3633;SDS011;1833;42.718;23.270;2023-03-14T11:50:23;34.33;;;30.60;;
3633;SDS011;1833;42.718;23.270;2023-03-14T11:52:52;32.97;;;29.57;;
3633;SDS011;1833;42.718;23.270;2023-03-14T11:55:24;37.57;;;31.17;;
3633;SDS011;1833;42.718;23.270;2023-03-14T11:57:53;32.23;;;29.03;;
3633;SDS011;1833;42.718;23.270;2023-03-14T12:00:23;32.97;;;29.63;;
3633;SDS011;1833;42.718;23.270;2023-03-14T12:02:51;33.13;;;29.73;;
3633;SDS011;1833;42.718;23.270;2023-03-14T12:11:18;31.70;;;28.50;;
3633;SDS011;1833;42.718;23.270;2023-03-14T12:13:47;34.07;;;30.50;;
3633;SDS011;1833;42.718;23.270;2023-03-14T12:21:56;32.83;;;29.63;;
3633;SDS011;1833;42.718;23.270;2023-03-14T12:24:25;32.07;;;28.93;;
3633;SDS011;1833;42.718;23.270;2023-03-14T12:26:55;33.53;;;30.27;;
3633;SDS011;1833;42.718;23.270;2023-03-14T12:29:23;32.63;;;29.23;;
3633;SDS011;1833;42.718;23.270;2023-03-14T12:32:05;32.53;;;29.10;;
3633;SDS011;1833;42.718;23.270;2023-03-14T12:34:33;32.90;;;29.70;;
3633;SDS011;1833;42.718;23.270;2023-03-14T12:39:47;33.90;;;30.60;;
3633;SDS011;1833;42.718;23.270;2023-03-14T12:42:20;33.80;;;30.80;;
3633;SDS011;1833;42.718;23.270;2023-03-14T12:44:49;34.03;;;30.57;;
3633;SDS011;1833;42.718;23.270;2023-03-14T12:50:13;33.63;;;30.53;;
3633;SDS011;1833;42.718;23.270;2023-03-14T12:52:43;33.27;;;30.07;;
3633;SDS011;1833;42.718;23.270;2023-03-14T12:55:13;32.13;;;29.13;;
3633;SDS011;1833;42.718;23.270;2023-03-14T12:57:45;40.87;;;29.10;;
3633;SDS011;1833;42.718;23.270;2023-03-14T13:00:18;33.80;;;30.70;;
3633;SDS011;1833;42.718;23.270;2023-03-14T13:02:46;31.90;;;29.00;;
3633;SDS011;1833;42.718;23.270;2023-03-14T13:05:19;32.40;;;29.40;;
3633;SDS011;1833;42.718;23.270;2023-03-14T13:08:03;31.30;;;28.20;;
3633;SDS011;1833;42.718;23.270;2023-03-14T13:10:38;32.00;;;28.90;;
3633;SDS011;1833;42.718;23.270;2023-03-14T13:13:12;32.50;;;29.63;;
3633;SDS011;1833;42.718;23.270;2023-03-14T13:15:41;33.70;;;28.73;;
3633;SDS011;1833;42.718;23.270;2023-03-14T13:18:10;31.93;;;28.83;;
3633;SDS011;1833;42.718;23.270;2023-03-14T13:20:38;31.80;;;28.00;;
3633;SDS011;1833;42.718;23.270;2023-03-14T13:23:18;32.43;;;29.17;;
3633;SDS011;1833;42.718;23.270;2023-03-14T13:25:47;31.40;;;28.30;;
3633;SDS011;1833;42.718;23.270;2023-03-14T13:28:17;31.40;;;28.50;;
3633;SDS011;1833;42.718;23.270;2023-03-14T13:30:45;31.37;;;28.53;;
3633;SDS011;1833;42.718;23.270;2023-03-14T13:33:14;32.07;;;29.17;;
3633;SDS011;1833;42.718;23.270;2023-03-14T13:35:43;36.20;;;32.40;;
3633;SDS011;1833;42.718;23.270;2023-03-14T13:38:14;33.47;;;30.27;;
3633;SDS011;1833;42.718;23.270;2023-03-14T13:40:42;31.50;;;28.50;;
3633;SDS011;1833;42.718;23.270;2023-03-14T13:43:11;31.80;;;28.50;;
3633;SDS011;1833;42.718;23.270;2023-03-14T13:45:43;29.50;;;26.80;;
3633;SDS011;1833;42.718;23.270;2023-03-14T13:48:10;30.10;;;27.33;;
3633;SDS011;1833;42.718;23.270;2023-03-14T13:50:43;31.60;;;28.67;;
3633;SDS011;1833;42.718;23.270;2023-03-14T13:53:12;32.07;;;28.93;;
3633;SDS011;1833;42.718;23.270;2023-03-14T13:55:44;30.63;;;27.77;;
3633;SDS011;1833;42.718;23.270;2023-03-14T13:58:21;31.47;;;28.50;;
3633;SDS011;1833;42.718;23.270;2023-03-14T14:01:10;31.67;;;28.70;;
3633;SDS011;1833;42.718;23.270;2023-03-14T14:03:47;31.13;;;28.40;;
3633;SDS011;1833;42.718;23.270;2023-03-14T14:06:31;32.70;;;27.70;;
3633;SDS011;1833;42.718;23.270;2023-03-14T14:08:59;30.70;;;27.80;;
3633;SDS011;1833;42.718;23.270;2023-03-14T14:11:39;32.80;;;28.43;;
3633;SDS011;1833;42.718;23.270;2023-03-14T14:14:11;31.40;;;28.50;;
3633;SDS011;1833;42.718;23.270;2023-03-14T14:16:41;32.50;;;29.40;;
3633;SDS011;1833;42.718;23.270;2023-03-14T14:19:10;34.27;;;31.17;;
3633;SDS011;1833;42.718;23.270;2023-03-14T14:21:39;33.83;;;30.93;;
3633;SDS011;1833;42.718;23.270;2023-03-14T14:24:10;31.53;;;28.53;;
3633;SDS011;1833;42.718;23.270;2023-03-14T14:26:39;32.97;;;29.93;;
3633;SDS011;1833;42.718;23.270;2023-03-14T14:29:20;33.50;;;30.53;;
3633;SDS011;1833;42.718;23.270;2023-03-14T14:31:58;33.37;;;30.30;;
3633;SDS011;1833;42.718;23.270;2023-03-14T14:34:28;32.90;;;30.00;;
3633;SDS011;1833;42.718;23.270;2023-03-14T14:36:55;31.80;;;29.00;;
3633;SDS011;1833;42.718;23.270;2023-03-14T14:39:23;32.23;;;29.40;;
3633;SDS011;1833;42.718;23.270;2023-03-14T14:41:52;32.10;;;29.20;;
3633;SDS011;1833;42.718;23.270;2023-03-14T14:44:21;31.77;;;28.67;;
3633;SDS011;1833;42.718;23.270;2023-03-14T14:47:01;31.20;;;28.33;;
3633;SDS011;1833;42.718;23.270;2023-03-14T14:49:29;32.00;;;28.90;;
3633;SDS011;1833;42.718;23.270;2023-03-14T14:52:00;31.23;;;28.43;;
3633;SDS011;1833;42.718;23.270;2023-03-14T14:54:33;31.07;;;27.87;;
3633;SDS011;1833;42.718;23.270;2023-03-14T14:57:04;33.43;;;30.33;;
3633;SDS011;1833;42.718;23.270;2023-03-14T14:59:32;32.07;;;29.37;;
3633;SDS011;1833;42.718;23.270;2023-03-14T15:05:13;32.87;;;29.87;;
3633;SDS011;1833;42.718;23.270;2023-03-14T15:08:01;33.63;;;30.73;;
3633;SDS011;1833;42.718;23.270;2023-03-14T15:10:36;33.93;;;30.93;;
3633;SDS011;1833;42.718;23.270;2023-03-14T15:13:05;31.87;;;28.97;;
3633;SDS011;1833;42.718;23.270;2023-03-14T15:15:46;33.27;;;30.57;;
3633;SDS011;1833;42.718;23.270;2023-03-14T15:18:25;33.03;;;30.23;;
3633;SDS011;1833;42.718;23.270;2023-03-14T15:20:56;31.67;;;28.80;;
3633;SDS011;1833;42.718;23.270;2023-03-14T15:23:43;32.70;;;29.80;;
3633;SDS011;1833;42.718;23.270;2023-03-14T15:26:16;34.30;;;31.40;;
3633;SDS011;1833;42.718;23.270;2023-03-14T15:31:57;34.57;;;31.17;;
3633;SDS011;1833;42.718;23.270;2023-03-14T15:34:41;35.30;;;32.13;;
3633;SDS011;1833;42.718;23.270;2023-03-14T15:43:11;33.10;;;30.10;;
3633;SDS011;1833;42.718;23.270;2023-03-14T15:45:53;34.03;;;31.00;;
3633;SDS011;1833;42.718;23.270;2023-03-14T15:48:23;35.43;;;32.43;;
3633;SDS011;1833;42.718;23.270;2023-03-14T15:50:56;35.20;;;32.00;;
3633;SDS011;1833;42.718;23.270;2023-03-14T15:53:42;35.90;;;32.70;;
3633;SDS011;1833;42.718;23.270;2023-03-14T15:56:22;34.47;;;31.10;;
3633;SDS011;1833;42.718;23.270;2023-03-14T15:59:07;36.50;;;32.77;;
3633;SDS011;1833;42.718;23.270;2023-03-14T16:01:37;35.60;;;32.37;;
3633;SDS011;1833;42.718;23.270;2023-03-14T16:04:08;36.87;;;33.47;;
3633;SDS011;1833;42.718;23.270;2023-03-14T16:06:39;38.43;;;34.43;;
3633;SDS011;1833;42.718;23.270;2023-03-14T16:09:46;36.30;;;33.10;;
3633;SDS011;1833;42.718;23.270;2023-03-14T16:12:42;36.93;;;33.53;;
3633;SDS011;1833;42.718;23.270;2023-03-14T16:15:32;36.10;;;32.80;;
3633;SDS011;1833;42.718;23.270;2023-03-14T16:18:08;34.30;;;31.20;;
3633;SDS011;1833;42.718;23.270;2023-03-14T16:20:38;35.07;;;31.87;;
3633;SDS011;1833;42.718;23.270;2023-03-14T17:15:43;37.57;;;33.70;;
3633;SDS011;1833;42.718;23.270;2023-03-14T17:18:37;37.23;;;33.33;;
3633;SDS011;1833;42.718;23.270;2023-03-14T17:21:10;36.73;;;32.97;;
3633;SDS011;1833;42.718;23.270;2023-03-14T17:23:42;35.27;;;32.07;;
3633;SDS011;1833;42.718;23.270;2023-03-14T17:29:42;38.87;;;34.90;;
3633;SDS011;1833;42.718;23.270;2023-03-14T17:32:54;35.67;;;32.37;;
3633;SDS011;1833;42.718;23.270;2023-03-14T17:38:48;36.00;;;32.37;;
3633;SDS011;1833;42.718;23.270;2023-03-14T17:41:38;36.90;;;33.33;;
3633;SDS011;1833;42.718;23.270;2023-03-14T17:44:22;33.70;;;30.60;;
3633;SDS011;1833;42.718;23.270;2023-03-14T18:31:41;36.67;;;32.70;;
3633;SDS011;1833;42.718;23.270;2023-03-14T18:34:38;35.37;;;31.67;;
3633;SDS011;1833;42.718;23.270;2023-03-14T18:56:53;43.13;;;31.90;;
3633;SDS011;1833;42.718;23.270;2023-03-14T18:59:30;35.27;;;31.60;;
3633;SDS011;1833;42.718;23.270;2023-03-14T19:02:19;36.13;;;32.23;;
3633;SDS011;1833;42.718;23.270;2023-03-14T19:24:31;33.87;;;30.47;;
3633;SDS011;1833;42.718;23.270;2023-03-14T19:27:18;36.00;;;32.40;;
3633;SDS011;1833;42.718;23.270;2023-03-14T19:51:36;40.53;;;33.50;;
3633;SDS011;1833;42.718;23.270;2023-03-14T19:54:11;35.90;;;32.10;;
3633;SDS011;1833;42.718;23.270;2023-03-14T19:56:58;35.93;;;32.33;;
3633;SDS011;1833;42.718;23.270;2023-03-14T19:59:48;38.03;;;31.47;;
3633;SDS011;1833;42.718;23.270;2023-03-14T20:02:33;37.90;;;32.90;;
3633;SDS011;1833;42.718;23.270;2023-03-14T20:05:09;33.70;;;30.40;;
3633;SDS011;1833;42.718;23.270;2023-03-14T20:07:48;33.47;;;30.10;;
3633;SDS011;1833;42.718;23.270;2023-03-14T20:10:29;33.73;;;30.43;;
3633;SDS011;1833;42.718;23.270;2023-03-14T20:12:59;36.97;;;32.97;;
3633;SDS011;1833;42.718;23.270;2023-03-14T20:15:35;36.60;;;32.93;;
3633;SDS011;1833;42.718;23.270;2023-03-14T20:20:52;35.33;;;31.67;;
3633;SDS011;1833;42.718;23.270;2023-03-14T20:35:32;36.43;;;31.90;;
3633;SDS011;1833;42.718;23.270;2023-03-14T20:38:25;34.83;;;30.30;;
3633;SDS011;1833;42.718;23.270;2023-03-14T20:41:06;35.57;;;31.73;;
3633;SDS011;1833;42.718;23.270;2023-03-14T20:43:53;38.40;;;31.80;;
3633;SDS011;1833;42.718;23.270;2023-03-14T20:47:04;33.57;;;30.27;;
3633;SDS011;1833;42.718;23.270;2023-03-14T21:38:35;37.80;;;30.63;;
3633;SDS011;1833;42.718;23.270;2023-03-14T21:41:04;39.30;;;32.70;;
3633;SDS011;1833;42.718;23.270;2023-03-14T21:47:05;36.90;;;33.03;;
